createdAt,value
2022-12-28T00:01:32.959Z,1.50
2022-12-28T00:04:01.207Z,1.90
2022-12-28T00:06:28.071Z,1.90
2022-12-28T00:08:57.968Z,2.05
2022-12-28T00:11:30.709Z,1.80
2022-12-28T00:14:02.331Z,1.92
2022-12-28T00:16:38.035Z,1.90
2022-12-28T00:19:09.795Z,2.20
2022-12-28T00:21:36.510Z,1.85
2022-12-28T00:24:03.762Z,1.90
2022-12-28T00:26:33.020Z,1.90
2022-12-28T00:29:04.886Z,1.70
2022-12-28T00:31:33.661Z,2.22
2022-12-28T00:34:00.784Z,1.90
2022-12-28T00:37:10.973Z,2.15
2022-12-28T00:39:14.904Z,1.98
2022-12-28T00:41:41.543Z,2.10
2022-12-28T00:44:08.367Z,2.42
2022-12-28T00:46:35.265Z,2.05
2022-12-28T00:49:02.063Z,2.28
2022-12-28T00:51:28.801Z,2.22
2022-12-28T00:53:55.599Z,2.20
2022-12-28T00:56:23.444Z,2.13
2022-12-28T00:58:50.654Z,1.77
2022-12-28T01:01:20.178Z,2.40
2022-12-28T01:03:47.449Z,1.85
2022-12-28T01:06:15.886Z,2.00
2022-12-28T01:08:42.848Z,1.67
2022-12-28T01:11:12.292Z,2.00
2022-12-28T01:13:38.971Z,2.75
2022-12-28T01:16:12.738Z,2.17
2022-12-28T01:18:39.740Z,1.70
2022-12-28T01:21:15.293Z,2.35
2022-12-28T01:23:42.996Z,1.52
2022-12-28T01:26:09.877Z,2.05
2022-12-28T01:28:36.908Z,2.40
2022-12-28T01:31:12.856Z,1.92
2022-12-28T01:33:41.204Z,2.08
2022-12-28T01:36:18.826Z,2.28
2022-12-28T01:38:46.598Z,3.83
2022-12-28T01:41:19.029Z,2.63
2022-12-28T01:43:45.654Z,2.40
2022-12-28T01:46:34.397Z,2.72
2022-12-28T01:49:26.074Z,2.53
2022-12-28T01:52:09.958Z,2.28
2022-12-28T01:54:43.832Z,2.67
2022-12-28T01:57:10.986Z,2.70
2022-12-28T01:59:43.606Z,3.22
2022-12-28T02:02:14.205Z,3.05
2022-12-28T02:04:41.940Z,3.45
2022-12-28T02:07:09.423Z,2.88
2022-12-28T02:09:40.523Z,2.80
2022-12-28T02:12:10.722Z,2.42
2022-12-28T02:14:38.950Z,2.47
2022-12-28T02:17:08.405Z,3.22
2022-12-28T02:19:44.958Z,2.92
2022-12-28T02:22:33.465Z,2.90
2022-12-28T02:25:14.044Z,3.35
2022-12-28T02:28:05.129Z,2.75
2022-12-28T02:30:38.362Z,3.95
2022-12-28T02:33:15.366Z,4.18
2022-12-28T02:36:12.995Z,4.07
2022-12-28T02:38:49.005Z,3.10
2022-12-28T02:41:21.852Z,3.15
2022-12-28T02:43:48.652Z,3.83
2022-12-28T02:46:47.360Z,3.05
2022-12-28T02:49:39.878Z,3.53
2022-12-28T02:52:12.675Z,3.58
2022-12-28T02:55:53.374Z,2.97
2022-12-28T02:59:05.877Z,3.50
2022-12-28T03:02:28.322Z,3.70
2022-12-28T03:06:03.996Z,3.92
2022-12-28T03:08:49.569Z,2.92
2022-12-28T03:11:25.499Z,3.10
2022-12-28T03:14:28.913Z,3.05
2022-12-28T03:17:18.265Z,3.28
2022-12-28T03:20:11.176Z,3.53
2022-12-28T03:22:59.171Z,2.95
2022-12-28T03:25:48.420Z,2.97
2022-12-28T03:28:40.017Z,3.00
2022-12-28T03:31:13.479Z,3.08
2022-12-28T03:33:49.567Z,3.20
2022-12-28T03:36:30.939Z,3.08
2022-12-28T03:39:18.423Z,2.90
2022-12-28T03:42:13.468Z,3.15
2022-12-28T03:44:45.106Z,3.85
2022-12-28T03:47:14.379Z,2.88
2022-12-28T03:49:41.482Z,4.00
2022-12-28T03:52:09.724Z,3.40
2022-12-28T03:54:36.556Z,2.72
2022-12-28T03:57:03.454Z,3.75
2022-12-28T04:02:02.215Z,4.57
2022-12-28T04:04:31.037Z,3.30
2022-12-28T04:06:57.673Z,2.95
2022-12-28T04:09:24.418Z,3.72
2022-12-28T04:11:51.131Z,3.10
2022-12-28T04:14:25.372Z,3.40
2022-12-28T04:16:52.115Z,3.80
2022-12-28T04:19:20.559Z,2.50
2022-12-28T04:21:48.173Z,3.30
2022-12-28T04:24:14.928Z,3.22
2022-12-28T04:26:41.597Z,3.25
2022-12-28T04:29:10.167Z,3.10
2022-12-28T04:31:52.846Z,2.85
2022-12-28T04:34:20.808Z,2.88
2022-12-28T04:36:55.097Z,2.42
2022-12-28T04:39:22.939Z,3.30
2022-12-28T04:41:49.856Z,3.45
2022-12-28T04:44:16.707Z,2.88
2022-12-28T04:46:43.636Z,2.83
2022-12-28T04:49:10.392Z,3.50
2022-12-28T04:51:37.056Z,2.20
2022-12-28T04:54:03.756Z,3.33
2022-12-28T04:56:30.350Z,2.80
2022-12-28T04:58:59.360Z,3.00
2022-12-28T05:01:26.642Z,2.50
2022-12-28T05:03:58.046Z,2.80
2022-12-28T05:06:27.802Z,2.60
2022-12-28T05:08:55.937Z,3.65
2022-12-28T05:11:25.754Z,2.75
2022-12-28T05:13:52.575Z,2.33
2022-12-28T05:16:23.367Z,2.10
2022-12-28T05:18:50.136Z,3.65
2022-12-28T05:21:22.619Z,2.40
2022-12-28T05:23:49.576Z,2.55
2022-12-28T05:26:18.964Z,2.78
2022-12-28T05:28:45.937Z,2.78
2022-12-28T05:31:16.203Z,2.53
2022-12-28T05:33:43.773Z,2.38
2022-12-28T05:36:13.241Z,2.65
2022-12-28T05:38:40.895Z,2.58
2022-12-28T05:41:26.246Z,2.80
2022-12-28T05:43:53.274Z,2.80
2022-12-28T05:46:24.681Z,2.90
2022-12-28T05:48:51.690Z,2.53
2022-12-28T05:51:20.489Z,2.60
2022-12-28T05:53:47.172Z,1.98
2022-12-28T05:56:19.004Z,2.45
2022-12-28T06:01:14.286Z,3.00
2022-12-28T06:03:42.964Z,2.10
2022-12-28T06:06:18.330Z,2.40
2022-12-28T06:08:46.975Z,3.03
2022-12-28T06:11:16.262Z,2.53
2022-12-28T06:13:43.064Z,2.50
2022-12-28T06:16:13.867Z,2.08
2022-12-28T06:18:40.996Z,2.38
2022-12-28T06:21:16.947Z,2.83
2022-12-28T06:23:45.006Z,1.75
2022-12-28T06:26:18.080Z,2.33
2022-12-28T06:28:45.564Z,2.75
2022-12-28T06:31:15.710Z,1.67
2022-12-28T06:33:43.399Z,2.75
2022-12-28T06:36:19.875Z,2.22
2022-12-28T06:38:48.815Z,2.28
2022-12-28T06:41:17.154Z,2.17
2022-12-28T06:43:44.893Z,1.80
2022-12-28T06:46:12.908Z,2.28
2022-12-28T06:48:40.618Z,1.55
2022-12-28T06:51:14.473Z,1.38
2022-12-28T06:53:42.151Z,1.80
2022-12-28T06:56:12.998Z,1.67
2022-12-28T06:58:39.819Z,2.67
2022-12-28T07:01:12.488Z,2.35
2022-12-28T07:03:39.434Z,2.05
2022-12-28T07:06:06.599Z,2.20
2022-12-28T07:08:33.850Z,1.98
2022-12-28T07:11:11.411Z,2.00
2022-12-28T07:13:38.300Z,2.53
2022-12-28T07:16:17.359Z,1.92
2022-12-28T07:18:44.726Z,1.98
2022-12-28T07:21:14.012Z,2.13
2022-12-28T07:23:41.137Z,1.75
2022-12-28T07:26:13.159Z,2.15
2022-12-28T07:28:41.942Z,2.45
2022-12-28T07:31:11.967Z,2.05
2022-12-28T07:33:39.141Z,2.42
2022-12-28T07:36:07.730Z,2.00
2022-12-28T07:38:35.233Z,1.40
2022-12-28T07:41:12.386Z,2.80
2022-12-28T07:43:39.374Z,2.08
2022-12-28T07:46:08.981Z,1.80
2022-12-28T07:48:36.689Z,1.90
2022-12-28T07:51:27.607Z,2.42
2022-12-28T07:53:55.758Z,2.40
2022-12-28T07:56:24.038Z,2.22
2022-12-28T07:58:56.788Z,2.63
2022-12-28T08:01:25.886Z,2.38
2022-12-28T08:03:58.955Z,1.83
2022-12-28T08:06:27.009Z,2.03
2022-12-28T08:08:58.151Z,2.20
2022-12-28T08:11:27.067Z,2.70
2022-12-28T08:13:55.505Z,2.63
2022-12-28T08:16:25.082Z,2.33
2022-12-28T08:18:51.810Z,2.05
2022-12-28T08:21:21.504Z,1.63
2022-12-28T08:23:48.708Z,2.00
2022-12-28T08:26:30.429Z,2.25
2022-12-28T08:28:59.248Z,2.10
2022-12-28T08:31:32.798Z,2.67
2022-12-28T08:34:02.081Z,2.20
2022-12-28T08:36:29.413Z,2.25
2022-12-28T08:38:57.667Z,2.58
2022-12-28T08:41:25.872Z,2.08
2022-12-28T08:43:53.674Z,2.10
2022-12-28T08:46:26.255Z,2.17
2022-12-28T08:48:54.795Z,2.75
2022-12-28T08:51:32.906Z,2.33
2022-12-28T08:54:00.443Z,2.75
2022-12-28T08:56:29.934Z,2.22
2022-12-28T08:58:57.420Z,2.90
2022-12-28T09:01:29.458Z,2.30
2022-12-28T09:03:57.910Z,2.28
2022-12-28T09:06:28.312Z,2.45
2022-12-28T09:09:05.533Z,2.30
2022-12-28T09:11:38.597Z,2.05
2022-12-28T09:14:07.412Z,2.85
2022-12-28T09:16:35.288Z,2.30
2022-12-28T09:19:03.973Z,2.63
2022-12-28T09:21:34.255Z,2.70
2022-12-28T09:24:01.404Z,2.95
2022-12-28T09:26:35.000Z,3.20
2022-12-28T09:29:03.862Z,2.58
2022-12-28T09:31:33.313Z,2.17
2022-12-28T09:34:35.080Z,2.72
2022-12-28T09:36:50.874Z,2.05
2022-12-28T09:39:20.667Z,2.10
2022-12-28T09:41:53.681Z,2.00
2022-12-28T09:44:26.301Z,1.90
2022-12-28T09:47:08.102Z,1.60
2022-12-28T09:50:25.761Z,1.60
2022-12-28T09:53:17.075Z,1.77
2022-12-28T09:55:53.618Z,2.95
2022-12-28T09:58:21.622Z,1.85
2022-12-28T10:01:03.459Z,1.60
2022-12-28T10:03:37.579Z,1.80
2022-12-28T10:06:12.316Z,2.08
2022-12-28T10:08:44.518Z,2.00
2022-12-28T10:11:16.916Z,1.58
2022-12-28T10:13:59.720Z,1.75
2022-12-28T10:16:30.250Z,1.63
2022-12-28T10:18:57.318Z,1.73
2022-12-28T10:21:32.467Z,1.90
2022-12-28T10:26:47.892Z,1.40
2022-12-28T10:29:22.901Z,1.60
2022-12-28T10:32:01.826Z,1.73
2022-12-28T10:34:34.590Z,1.40
2022-12-28T10:37:14.569Z,1.85
2022-12-28T10:39:50.112Z,1.73
2022-12-28T10:42:36.011Z,2.22
2022-12-28T10:45:06.432Z,2.35
2022-12-28T10:47:46.721Z,1.58
2022-12-28T10:50:43.430Z,1.25
2022-12-28T10:53:39.858Z,1.40
2022-12-28T10:56:13.607Z,1.38
2022-12-28T10:58:42.527Z,1.13
2022-12-28T11:01:12.854Z,1.13
2022-12-28T11:03:42.563Z,1.60
2022-12-28T11:06:10.551Z,1.55
2022-12-28T11:08:38.295Z,1.50
2022-12-28T11:11:05.258Z,1.42
2022-12-28T11:13:33.260Z,1.35
2022-12-28T11:16:00.243Z,1.50
2022-12-28T11:18:30.764Z,1.92
2022-12-28T11:20:59.979Z,2.28
2022-12-28T11:23:32.826Z,1.33
2022-12-28T11:25:59.511Z,1.88
2022-12-28T11:28:26.292Z,2.47
2022-12-28T11:30:53.159Z,2.08
2022-12-28T11:33:46.134Z,1.92
2022-12-28T11:36:21.151Z,2.13
2022-12-28T11:38:50.777Z,1.85
2022-12-28T11:41:26.346Z,1.80
2022-12-28T11:44:00.548Z,2.08
2022-12-28T11:46:27.298Z,1.58
2022-12-28T11:49:27.406Z,1.90
2022-12-28T11:52:27.507Z,1.95
2022-12-28T11:55:21.532Z,1.50
2022-12-28T11:57:48.215Z,2.85
2022-12-28T12:00:23.196Z,1.77
2022-12-28T12:02:58.043Z,1.60
2022-12-28T12:05:37.340Z,2.00
2022-12-28T12:08:16.733Z,2.10
2022-12-28T12:10:48.221Z,2.10
2022-12-28T12:13:23.880Z,2.17
2022-12-28T12:16:12.298Z,2.15
2022-12-28T12:18:46.971Z,2.13
2022-12-28T12:21:33.538Z,2.15
2022-12-28T12:24:26.997Z,1.88
2022-12-28T12:27:17.434Z,1.70
2022-12-28T12:29:48.940Z,1.90
2022-12-28T12:32:37.952Z,1.90
2022-12-28T12:35:07.254Z,2.00
2022-12-28T12:38:14.412Z,1.90
2022-12-28T12:41:08.572Z,2.05
2022-12-28T12:43:44.645Z,1.88
2022-12-28T12:46:29.675Z,2.00
2022-12-28T12:49:27.192Z,1.42
2022-12-28T12:52:06.356Z,1.42
2022-12-28T12:55:06.324Z,2.03
2022-12-28T12:57:57.984Z,1.50
2022-12-28T13:00:33.977Z,1.98
2022-12-28T13:03:31.702Z,2.05
2022-12-28T13:05:58.582Z,2.20
2022-12-28T13:08:48.542Z,1.88
2022-12-28T13:11:18.237Z,1.73
2022-12-28T13:13:47.929Z,2.28
2022-12-28T13:16:21.731Z,1.85
2022-12-28T13:18:59.660Z,1.90
2022-12-28T13:21:28.846Z,1.98
2022-12-28T13:23:55.659Z,2.30
2022-12-28T13:26:28.440Z,1.83
2022-12-28T13:29:03.618Z,2.22
2022-12-28T13:31:38.997Z,2.30
2022-12-28T13:34:19.917Z,1.60
2022-12-28T13:36:56.413Z,1.80
2022-12-28T13:39:24.932Z,2.17
2022-12-28T13:41:51.570Z,1.92
2022-12-28T13:44:26.093Z,1.45
2022-12-28T13:46:59.338Z,1.73
2022-12-28T13:49:28.503Z,1.70
2022-12-28T13:51:56.442Z,1.95
2022-12-28T13:54:25.191Z,1.80
2022-12-28T13:57:14.726Z,1.73
2022-12-28T13:59:44.843Z,1.50
2022-12-28T14:02:18.387Z,1.48
2022-12-28T14:04:54.337Z,2.08
2022-12-28T14:07:24.572Z,2.60
2022-12-28T14:09:52.488Z,1.60
2022-12-28T14:12:20.170Z,1.27
2022-12-28T14:14:47.958Z,1.75
2022-12-28T14:17:15.071Z,1.52
2022-12-28T14:19:43.323Z,1.60
2022-12-28T14:22:33.914Z,1.65
2022-12-28T14:25:08.618Z,1.85
2022-12-28T14:27:39.723Z,1.63
2022-12-28T14:30:20.257Z,1.30
2022-12-28T14:32:47.270Z,1.27
2022-12-28T14:35:22.942Z,1.92
2022-12-28T14:37:57.991Z,1.33
2022-12-28T14:40:33.304Z,1.92
2022-12-28T14:43:24.557Z,1.35
2022-12-28T14:46:06.789Z,1.20
2022-12-28T14:48:40.714Z,1.40
2022-12-28T14:54:25.750Z,1.10
2022-12-28T14:57:03.313Z,1.38
2022-12-28T14:59:38.262Z,1.80
2022-12-28T15:00:26.528Z,1.20
2022-12-28T15:02:05.702Z,1.10
2022-12-28T15:04:39.291Z,1.27
2022-12-28T15:07:08.321Z,1.55
2022-12-28T15:09:35.199Z,1.58
2022-12-28T15:12:12.951Z,1.60
2022-12-28T15:17:07.740Z,1.20
2022-12-28T15:19:34.962Z,1.42
2022-12-28T15:22:01.820Z,1.45
2022-12-28T15:24:33.514Z,1.40
2022-12-28T15:27:01.418Z,1.40
2022-12-28T15:29:55.647Z,1.73
2022-12-28T15:32:14.572Z,1.08
2022-12-28T15:34:41.643Z,1.20
2022-12-28T15:37:08.313Z,1.40
2022-12-28T15:39:34.918Z,1.20
2022-12-28T15:42:01.481Z,1.42
2022-12-28T15:44:28.041Z,1.38
2022-12-28T15:46:55.016Z,1.58
2022-12-28T15:49:21.700Z,1.08
2022-12-28T15:51:48.391Z,1.67
2022-12-28T15:54:15.037Z,1.45
2022-12-28T15:56:42.568Z,1.55
2022-12-28T15:59:14.593Z,1.42
2022-12-28T16:01:44.259Z,1.20
2022-12-28T16:04:11.303Z,1.60
2022-12-28T16:06:43.815Z,1.45
2022-12-28T16:09:12.415Z,1.13
2022-12-28T16:11:39.124Z,1.90
2022-12-28T16:14:08.836Z,1.23
2022-12-28T16:16:38.178Z,1.42
2022-12-28T16:19:06.984Z,1.95
2022-12-28T16:21:33.842Z,1.25
2022-12-28T16:24:00.920Z,1.45
2022-12-28T16:26:28.362Z,1.60
2022-12-28T16:28:55.455Z,1.10
2022-12-28T16:31:30.950Z,1.63
2022-12-28T16:34:00.195Z,1.63
2022-12-28T16:36:27.777Z,1.40
2022-12-28T16:38:54.751Z,1.63
2022-12-28T16:41:21.647Z,1.75
2022-12-28T16:43:49.272Z,1.67
2022-12-28T16:46:16.393Z,1.60
2022-12-28T16:48:45.770Z,1.67
2022-12-28T16:51:12.913Z,1.80
2022-12-28T16:53:39.763Z,1.25
2022-12-28T16:56:07.246Z,1.70
2022-12-28T16:58:34.173Z,1.75
2022-12-28T17:01:08.385Z,1.52
2022-12-28T17:03:35.988Z,1.35
2022-12-28T17:06:05.881Z,1.10
2022-12-28T17:08:35.072Z,1.20
2022-12-28T17:11:02.300Z,1.92
2022-12-28T17:13:29.120Z,1.83
2022-12-28T17:16:02.282Z,1.88
2022-12-28T17:18:31.228Z,1.30
2022-12-28T17:21:01.848Z,1.65
2022-12-28T17:23:33.311Z,1.77
2022-12-28T17:25:59.975Z,1.08
2022-12-28T17:28:26.747Z,1.20
2022-12-28T17:31:06.902Z,1.58
2022-12-28T17:33:38.941Z,1.40
2022-12-28T17:36:06.945Z,1.23
2022-12-28T17:38:33.609Z,1.30
2022-12-28T17:41:00.179Z,1.02
2022-12-28T17:43:26.782Z,1.33
2022-12-28T17:45:53.462Z,1.38
2022-12-28T17:48:20.377Z,1.60
2022-12-28T17:50:47.152Z,1.50
2022-12-28T17:53:14.122Z,1.27
2022-12-28T17:55:40.917Z,1.70
2022-12-28T17:58:07.474Z,1.67
2022-12-28T18:00:34.280Z,1.30
2022-12-28T18:03:01.395Z,1.65
2022-12-28T18:05:31.413Z,1.42
2022-12-28T18:07:58.097Z,1.60
2022-12-28T18:10:24.818Z,1.45
2022-12-28T18:12:51.576Z,1.15
2022-12-28T18:15:18.331Z,1.35
2022-12-28T18:17:45.222Z,1.48
2022-12-28T18:20:12.015Z,1.50
2022-12-28T18:22:38.758Z,1.27
2022-12-28T18:25:06.074Z,1.00
2022-12-28T18:27:35.294Z,1.67
2022-12-28T18:30:02.332Z,1.48
2022-12-28T18:32:29.068Z,1.70
2022-12-28T18:34:55.737Z,1.38
2022-12-28T18:37:22.468Z,1.60
2022-12-28T18:39:49.221Z,1.55
2022-12-28T18:42:18.385Z,1.30
2022-12-28T18:44:46.302Z,1.90
2022-12-28T18:47:13.680Z,1.67
2022-12-28T18:49:46.814Z,1.70
2022-12-28T18:52:17.253Z,1.40
2022-12-28T18:54:44.312Z,1.30
2022-12-28T18:57:11.032Z,1.70
2022-12-28T18:59:37.667Z,1.65
2022-12-28T19:02:07.089Z,1.33
2022-12-28T19:04:34.604Z,1.55
2022-12-28T19:07:01.384Z,1.88
2022-12-28T19:09:28.025Z,2.05
2022-12-28T19:11:55.583Z,1.88
2022-12-28T19:14:22.390Z,2.22
2022-12-28T19:16:49.181Z,1.83
2022-12-28T19:19:17.652Z,1.83
2022-12-28T19:21:44.975Z,1.85
2022-12-28T19:24:14.637Z,2.35
2022-12-28T19:26:41.656Z,2.60
2022-12-28T19:29:08.512Z,2.60
2022-12-28T19:31:35.316Z,1.70
2022-12-28T19:34:02.186Z,2.45
2022-12-28T19:36:29.099Z,2.22
2022-12-28T19:38:57.227Z,2.42
2022-12-28T19:41:24.450Z,2.28
2022-12-28T19:43:51.845Z,2.38
2022-12-28T19:46:21.551Z,2.65
2022-12-28T19:48:48.527Z,2.35
2022-12-28T19:51:15.404Z,2.35
2022-12-28T19:53:42.268Z,2.38
2022-12-28T19:56:13.948Z,2.42
2022-12-28T19:58:40.918Z,2.35
2022-12-28T20:01:16.358Z,2.60
2022-12-28T20:03:44.625Z,1.88
2022-12-28T20:06:14.173Z,2.38
2022-12-28T20:08:45.399Z,2.67
2022-12-28T20:11:12.230Z,2.22
2022-12-28T20:13:38.927Z,2.28
2022-12-28T20:16:06.414Z,2.38
2022-12-28T20:18:33.172Z,2.45
2022-12-28T20:21:19.099Z,2.70
2022-12-28T20:23:48.295Z,2.60
2022-12-28T20:26:15.312Z,2.83
2022-12-28T20:28:42.141Z,2.55
2022-12-28T20:31:13.771Z,2.10
2022-12-28T20:33:41.797Z,2.70
2022-12-28T20:36:33.907Z,2.03
2022-12-28T20:39:01.213Z,2.45
2022-12-28T20:41:51.638Z,2.30
2022-12-28T20:44:27.569Z,2.38
2022-12-28T20:46:55.532Z,2.00
2022-12-28T20:49:23.851Z,3.28
2022-12-28T20:51:51.072Z,1.92
2022-12-28T20:54:26.856Z,1.92
2022-12-28T20:56:55.960Z,1.92
2022-12-28T20:59:24.989Z,2.60
2022-12-28T21:01:52.326Z,1.95
2022-12-28T21:04:19.357Z,2.70
2022-12-28T21:06:46.171Z,3.03
2022-12-28T21:09:12.823Z,2.63
2022-12-28T21:11:39.492Z,1.73
2022-12-28T21:14:06.286Z,2.08
2022-12-28T21:16:33.803Z,1.80
2022-12-28T21:19:00.430Z,2.00
2022-12-28T21:21:27.067Z,1.48
2022-12-28T21:23:53.801Z,1.27
2022-12-28T21:26:21.320Z,1.38
2022-12-28T21:28:48.510Z,1.83
2022-12-28T21:31:15.416Z,2.08
2022-12-28T21:33:42.539Z,2.25
2022-12-28T21:36:17.941Z,1.52
2022-12-28T21:38:46.497Z,2.10
2022-12-28T21:41:16.877Z,1.88
2022-12-28T21:43:43.605Z,1.73
2022-12-28T21:46:14.718Z,1.60
2022-12-28T21:48:42.035Z,1.75
2022-12-28T21:51:35.030Z,1.38
2022-12-28T21:54:22.170Z,1.50
2022-12-28T21:56:55.355Z,1.73
2022-12-28T21:59:24.595Z,1.60
2022-12-28T22:02:10.425Z,1.73
2022-12-28T22:05:02.113Z,1.80
2022-12-28T22:07:30.399Z,1.38
2022-12-28T22:10:15.615Z,1.70
2022-12-28T22:12:42.329Z,1.40
2022-12-28T22:15:30.748Z,1.65
2022-12-28T22:18:03.222Z,1.13
2022-12-28T22:20:30.966Z,1.05
2022-12-28T22:23:00.283Z,1.50
2022-12-28T22:25:28.633Z,1.17
2022-12-28T22:27:55.563Z,0.90
2022-12-28T22:30:22.487Z,1.30
2022-12-28T22:32:49.224Z,1.50
2022-12-28T22:35:16.791Z,1.10
2022-12-28T22:37:43.829Z,1.25
2022-12-28T22:40:11.427Z,1.10
2022-12-28T22:42:45.530Z,1.40
2022-12-28T22:45:14.247Z,1.15
2022-12-28T22:47:41.665Z,0.95
2022-12-28T22:50:10.542Z,1.35
2022-12-28T22:52:37.232Z,1.50
2022-12-28T22:55:04.265Z,1.73
2022-12-28T22:57:30.889Z,1.48
2022-12-28T22:59:57.457Z,1.20
2022-12-28T23:02:24.169Z,1.45
2022-12-28T23:04:50.854Z,1.60
2022-12-28T23:07:17.987Z,1.27
2022-12-28T23:09:44.632Z,1.50
2022-12-28T23:12:11.266Z,1.23
2022-12-28T23:14:56.523Z,1.55
2022-12-28T23:17:23.954Z,1.27
2022-12-28T23:20:09.187Z,1.70
2022-12-28T23:23:11.011Z,1.90
2022-12-28T23:25:58.691Z,1.77
2022-12-28T23:28:25.503Z,2.75
2022-12-28T23:30:52.919Z,1.70
2022-12-28T23:33:19.733Z,1.90
2022-12-28T23:35:46.465Z,1.80
2022-12-28T23:38:13.121Z,2.38
2022-12-28T23:40:40.814Z,1.88
2022-12-28T23:43:07.974Z,2.40
2022-12-28T23:45:35.198Z,1.98
2022-12-28T23:48:02.180Z,1.80
2022-12-28T23:50:28.921Z,2.30
2022-12-28T23:52:55.638Z,1.80
2022-12-28T23:55:22.483Z,1.70
2022-12-28T23:57:49.190Z,1.48
